Time;durP1;ratioP1;P1;durP2;ratioP2;P2;SDS_P1;SDS_P2;PMS_P1;PMS_P2;Temp;Humidity;BMP_temperature;BMP_pressure;BME280_temperature;BME280_humidity;BME280_pressure;Samples;Min_cycle;Max_cycle;Signal;HPM_P1;HPM_P2
2021/08/30 00:00:51;;;;;;;12.38;7.90;;;;;;;21.70;78.63;99180.13;5126634;27;20051;-69
2021/08/30 00:03:16;;;;;;;12.90;7.15;;;;;;;21.73;78.18;99179.63;5128326;27;20056;-69
2021/08/30 00:05:41;;;;;;;10.25;7.25;;;;;;;21.70;78.26;99185.53;5129185;27;20038;-69
2021/08/30 00:08:07;;;;;;;11.52;7.15;;;;;;;21.75;77.46;99191.81;5129362;27;20024;-74
2021/08/30 00:10:32;;;;;;;16.30;7.50;;;;;;;21.66;77.78;99190.59;5128427;27;20043;-69
2021/08/30 00:12:58;;;;;;;14.98;7.47;;;;;;;21.71;77.38;99190.66;5128582;27;20043;-73
2021/08/30 00:15:23;;;;;;;10.43;6.97;;;;;;;21.63;77.22;99186.50;5128003;27;20039;-74
2021/08/30 00:17:51;;;;;;;8.93;6.85;;;;;;;21.84;76.07;99190.31;5128605;27;20314;-68
2021/08/30 00:20:18;;;;;;;12.07;6.75;;;;;;;21.75;77.17;99201.75;5123720;27;20039;-74
2021/08/30 00:22:45;;;;;;;12.63;7.40;;;;;;;21.76;77.53;99196.13;5130376;27;20335;-73
2021/08/30 00:25:11;;;;;;;11.45;6.97;;;;;;;21.75;77.60;99189.09;5140732;27;20046;-74
2021/08/30 00:27:37;;;;;;;8.88;6.93;;;;;;;21.84;77.25;99195.69;5130613;27;20090;-69
2021/08/30 00:30:04;;;;;;;15.82;7.72;;;;;;;21.83;77.59;99199.47;5126495;27;20035;-73
2021/08/30 00:32:30;;;;;;;10.73;7.40;;;;;;;21.84;77.68;99197.59;5127246;27;20031;-69
2021/08/30 00:34:55;;;;;;;11.15;7.85;;;;;;;21.75;78.11;99196.38;5123331;27;20072;-73
2021/08/30 00:37:20;;;;;;;11.52;7.22;;;;;;;21.79;77.94;99201.03;5128792;27;20031;-69
2021/08/30 00:39:50;;;;;;;13.05;7.97;;;;;;;21.76;77.88;99206.09;5129514;27;20047;-73
2021/08/30 00:42:15;;;;;;;11.88;7.30;;;;;;;21.65;77.93;99203.25;5127563;27;20072;-73
2021/08/30 00:44:41;;;;;;;10.93;7.63;;;;;;;21.59;78.00;99198.03;5128791;27;20579;-73
2021/08/30 00:47:06;;;;;;;14.73;7.97;;;;;;;21.74;77.75;99192.88;5129598;27;20225;-69
2021/08/30 00:49:32;;;;;;;12.07;8.23;;;;;;;21.68;78.03;99200.06;5127031;27;20067;-73
2021/08/30 00:51:58;;;;;;;16.85;8.23;;;;;;;21.59;77.98;99200.72;5126905;27;20351;-73
2021/08/30 00:54:26;;;;;;;11.45;8.38;;;;;;;21.31;79.02;99198.94;5126178;27;20020;-69
2021/08/30 00:56:52;;;;;;;13.77;8.25;;;;;;;21.29;79.59;99195.69;5131666;27;20031;-69
2021/08/30 00:59:18;;;;;;;10.93;8.45;;;;;;;21.26;79.43;99198.88;5125939;27;21318;-74
2021/08/30 01:01:43;;;;;;;13.43;8.50;;;;;;;21.35;79.27;99200.09;5129424;27;20031;-73
2021/08/30 01:04:10;;;;;;;12.55;8.63;;;;;;;21.37;79.55;99206.03;5125906;27;20448;-70
2021/08/30 01:06:46;;;;;;;12.57;8.00;;;;;;;21.31;79.70;99210.53;5126458;27;20031;-73
2021/08/30 01:09:29;;;;;;;14.63;8.73;;;;;;;21.35;79.38;99203.59;5127372;27;20023;-69
2021/08/30 01:12:14;;;;;;;11.00;8.38;;;;;;;21.51;78.75;99210.03;5126381;27;20077;-69
2021/08/30 01:14:50;;;;;;;17.67;8.63;;;;;;;21.33;78.85;99207.59;5123804;27;20039;-74
2021/08/30 01:17:18;;;;;;;15.43;8.30;;;;;;;21.26;79.34;99215.84;5130722;27;20030;-69
2021/08/30 01:19:48;;;;;;;15.40;8.50;;;;;;;21.14;79.36;99222.31;5124233;27;20190;-73
2021/08/30 01:22:15;;;;;;;16.45;9.48;;;;;;;21.01;79.56;99218.88;5127799;27;20533;-73
2021/08/30 01:24:41;;;;;;;13.25;8.25;;;;;;;20.88;79.91;99215.69;5125365;27;20039;-74
2021/08/30 01:27:07;;;;;;;12.20;8.73;;;;;;;20.94;79.87;99214.72;5109924;27;20221;-73
2021/08/30 01:29:44;;;;;;;16.20;9.80;;;;;;;20.99;79.68;99220.19;5123952;27;20031;-69
2021/08/30 01:32:28;;;;;;;15.57;10.00;;;;;;;20.98;79.11;99226.63;5128201;27;20031;-69
2021/08/30 01:34:54;;;;;;;10.82;9.23;;;;;;;21.07;78.74;99221.66;5125534;27;20058;-74
2021/08/30 01:37:20;;;;;;;14.95;9.30;;;;;;;21.13;78.04;99223.38;5129118;27;20023;-74
2021/08/30 01:39:46;;;;;;;15.50;9.55;;;;;;;20.89;78.49;99222.69;5122662;27;20032;-69
2021/08/30 01:42:11;;;;;;;12.00;8.45;;;;;;;20.90;77.01;99216.25;5128746;27;20035;-73
2021/08/30 01:44:37;;;;;;;10.93;9.02;;;;;;;20.86;77.29;99220.50;5124108;27;20038;-69
2021/08/30 01:47:04;;;;;;;12.05;8.90;;;;;;;20.86;77.13;99223.19;5124017;27;20094;-69
2021/08/30 01:49:30;;;;;;;12.88;9.23;;;;;;;20.85;76.88;99230.44;5127784;27;20027;-74
2021/08/30 01:51:57;;;;;;;14.07;8.70;;;;;;;20.78;76.81;99227.03;5125270;27;20055;-69
2021/08/30 01:54:24;;;;;;;13.00;8.65;;;;;;;20.75;77.03;99232.91;5128184;27;20093;-73
2021/08/30 01:56:53;;;;;;;15.82;8.93;;;;;;;20.82;76.70;99232.78;5125770;27;20038;-73
2021/08/30 02:02:08;;;;;;;12.55;8.15;;;;;;;20.70;77.03;99233.63;5126332;27;20148;-73
2021/08/30 02:04:35;;;;;;;10.82;9.27;;;;;;;20.77;76.53;99232.66;5125126;27;20042;-69
2021/08/30 02:07:01;;;;;;;13.00;8.48;;;;;;;20.51;76.62;99240.25;5126079;27;20040;-70
2021/08/30 02:09:27;;;;;;;11.60;8.90;;;;;;;20.62;77.21;99249.34;5125946;27;20060;-69
2021/08/30 02:11:52;;;;;;;16.67;9.00;;;;;;;20.42;77.51;99243.56;5125047;27;20321;-74
2021/08/30 02:14:19;;;;;;;12.82;8.93;;;;;;;20.32;77.63;99247.63;5124984;27;20123;-73
2021/08/30 02:16:49;;;;;;;9.85;8.18;;;;;;;20.28;78.02;99237.59;5123442;27;20313;-73
2021/08/30 02:19:27;;;;;;;14.65;9.10;;;;;;;20.29;78.15;99245.41;5114650;27;20103;-73
2021/08/30 02:22:00;;;;;;;13.05;8.70;;;;;;;20.39;78.31;99244.84;5125325;27;20039;-70
2021/08/30 02:24:38;;;;;;;13.43;8.57;;;;;;;20.35;78.72;99254.41;5122370;27;20027;-69
2021/08/30 02:27:26;;;;;;;14.38;9.10;;;;;;;20.32;79.10;99249.50;5127849;27;20058;-68
2021/08/30 02:30:04;;;;;;;12.00;8.55;;;;;;;20.38;78.71;99249.38;5122309;27;20098;-73
2021/08/30 02:32:31;;;;;;;15.98;9.02;;;;;;;20.29;79.21;99245.41;5127066;27;20339;-73
2021/08/30 02:35:01;;;;;;;13.60;8.20;;;;;;;20.15;79.11;99248.59;5104904;27;20220;-74
2021/08/30 02:37:35;;;;;;;11.20;8.93;;;;;;;20.20;78.62;99254.09;5127250;27;20274;-73
2021/08/30 02:40:02;;;;;;;14.10;8.68;;;;;;;20.14;78.61;99253.16;5124291;27;20252;-69
2021/08/30 02:42:30;;;;;;;13.15;8.60;;;;;;;20.07;78.50;99255.16;5127244;27;20031;-74
2021/08/30 02:44:57;;;;;;;11.48;8.48;;;;;;;20.22;78.08;99260.84;5105288;28;20097;-69
2021/08/30 02:47:24;;;;;;;15.73;9.43;;;;;;;20.09;78.51;99253.88;5130560;27;20053;-73
2021/08/30 02:49:50;;;;;;;12.48;8.55;;;;;;;20.14;78.42;99255.84;5123788;28;20042;-73
2021/08/30 02:52:18;;;;;;;15.13;8.43;;;;;;;20.21;78.24;99247.66;5125233;27;20081;-70
2021/08/30 02:54:46;;;;;;;11.93;8.82;;;;;;;20.11;78.67;99252.81;5124348;27;20059;-73
2021/08/30 02:57:13;;;;;;;12.40;8.40;;;;;;;20.09;78.68;99259.25;5125413;28;20069;-69
2021/08/30 02:59:39;;;;;;;13.90;8.52;;;;;;;20.12;78.39;99262.50;5123787;27;20039;-69
2021/08/30 03:02:06;;;;;;;11.73;8.85;;;;;;;20.21;77.54;99259.22;5125301;28;20053;-69
2021/08/30 03:04:32;;;;;;;12.50;8.93;;;;;;;20.14;78.09;99263.91;5124888;28;20040;-74
2021/08/30 03:06:59;;;;;;;13.38;8.65;;;;;;;20.13;78.09;99261.47;5126779;28;20032;-68
2021/08/30 03:09:25;;;;;;;13.02;8.35;;;;;;;20.09;78.21;99264.63;5124652;27;20035;-69
2021/08/30 03:11:52;;;;;;;14.07;8.45;;;;;;;20.01;78.64;99275.72;5124065;28;20083;-73
2021/08/30 03:14:22;;;;;;;13.13;8.57;;;;;;;19.96;78.85;99278.28;5121427;28;20102;-69
2021/08/30 03:16:49;;;;;;;14.88;8.70;;;;;;;20.02;78.37;99280.03;5126360;28;20092;-69
2021/08/30 03:19:16;;;;;;;12.63;8.25;;;;;;;19.85;78.31;99276.44;5120394;27;20080;-69
2021/08/30 03:21:44;;;;;;;14.63;8.27;;;;;;;19.76;78.28;99280.47;5123912;28;20086;-70
2021/08/30 03:24:12;;;;;;;14.90;8.52;;;;;;;19.79;78.24;99282.72;5125749;28;20577;-69
2021/08/30 03:26:38;;;;;;;17.50;8.43;;;;;;;19.91;77.21;99290.81;5123955;27;20321;-69
2021/08/30 03:29:06;;;;;;;14.05;8.88;;;;;;;19.75;77.81;99287.72;5125740;28;20034;-73
2021/08/30 03:31:34;;;;;;;12.45;8.15;;;;;;;19.65;78.18;99297.41;5123739;28;20055;-69
2021/08/30 03:34:01;;;;;;;11.55;8.55;;;;;;;19.70;77.94;99292.97;5126109;28;20310;-69
2021/08/30 03:36:28;;;;;;;13.82;8.57;;;;;;;19.68;77.44;99292.38;5123723;28;20103;-69
2021/08/30 03:38:56;;;;;;;16.38;8.20;;;;;;;19.71;77.25;99299.97;5125570;28;20241;-69
2021/08/30 03:41:22;;;;;;;13.35;7.90;;;;;;;19.67;77.01;99295.31;5132176;28;20027;-73
2021/08/30 03:43:49;;;;;;;12.93;7.88;;;;;;;19.56;77.04;99299.63;5122669;28;20255;-74
2021/08/30 03:46:14;;;;;;;11.25;7.32;;;;;;;19.56;76.66;99314.91;5124889;27;20037;-69
2021/08/30 03:48:40;;;;;;;10.82;7.53;;;;;;;19.62;76.36;99319.34;5126063;28;20027;-69
2021/08/30 03:51:08;;;;;;;9.15;7.10;;;;;;;19.54;77.29;99315.13;5126813;28;20751;-69
2021/08/30 03:53:35;;;;;;;11.30;8.10;;;;;;;19.62;76.67;99316.66;5105977;28;20023;-74
2021/08/30 03:56:02;;;;;;;11.13;8.57;;;;;;;19.51;76.83;99318.25;5126731;27;20035;-73
2021/08/30 03:58:29;;;;;;;12.57;7.75;;;;;;;19.52;76.82;99317.22;5131076;27;20032;-73
2021/08/30 04:00:55;;;;;;;11.02;7.40;;;;;;;19.69;75.96;99326.25;5134908;27;20027;-74
2021/08/30 04:03:22;;;;;;;12.98;7.93;;;;;;;19.46;77.01;99329.69;5136123;27;20023;-73
2021/08/30 04:05:49;;;;;;;9.75;7.00;;;;;;;19.33;76.96;99329.06;5130969;27;20035;-69
2021/08/30 04:08:15;;;;;;;14.93;7.80;;;;;;;19.44;76.94;99325.59;5133188;27;20019;-74
2021/08/30 04:10:41;;;;;;;8.95;6.82;;;;;;;19.47;76.98;99333.19;5115732;27;20020;-73
2021/08/30 04:13:07;;;;;;;8.55;7.25;;;;;;;19.48;76.99;99336.69;5132098;27;20059;-69
2021/08/30 04:15:33;;;;;;;10.57;7.68;;;;;;;19.54;76.81;99335.81;5135383;27;20039;-73
2021/08/30 04:17:59;;;;;;;10.23;7.50;;;;;;;19.50;75.97;99335.41;5135034;27;20715;-69
2021/08/30 04:20:25;;;;;;;11.55;7.50;;;;;;;19.43;75.91;99330.16;5136073;27;20043;-73
2021/08/30 04:22:50;;;;;;;10.55;7.28;;;;;;;19.44;75.76;99333.66;5137987;27;20072;-69
2021/08/30 04:25:16;;;;;;;11.55;7.47;;;;;;;19.54;75.06;99344.69;5135643;27;20067;-69
2021/08/30 04:27:41;;;;;;;12.55;7.32;;;;;;;19.63;74.93;99351.34;5134348;27;20031;-73
2021/08/30 04:30:07;;;;;;;8.45;6.72;;;;;;;19.49;75.00;99343.69;5137023;27;20312;-73
2021/08/30 04:32:35;;;;;;;12.20;7.57;;;;;;;19.55;74.34;99354.38;5137254;27;20050;-69
2021/08/30 04:35:02;;;;;;;10.65;7.40;;;;;;;19.56;74.51;99353.31;5132516;27;20073;-73
2021/08/30 04:37:27;;;;;;;11.70;7.78;;;;;;;19.62;74.42;99365.00;5136224;27;20039;-73
2021/08/30 04:39:53;;;;;;;9.30;6.80;;;;;;;19.65;74.10;99368.06;5135846;27;20043;-69
2021/08/30 04:42:18;;;;;;;8.02;6.47;;;;;;;19.73;73.72;99359.66;5120142;27;20011;-74
2021/08/30 04:44:44;;;;;;;10.50;6.85;;;;;;;19.83;72.84;99371.75;5133964;27;20023;-74
2021/08/30 04:47:09;;;;;;;11.85;7.20;;;;;;;19.84;72.95;99368.81;5120507;27;20065;-71
2021/08/30 04:49:35;;;;;;;12.27;6.85;;;;;;;19.92;72.80;99362.28;5133852;27;20034;-73
2021/08/30 04:52:01;;;;;;;10.18;6.85;;;;;;;19.98;72.34;99372.13;5134952;27;20329;-73
2021/08/30 04:54:26;;;;;;;10.40;6.35;;;;;;;20.07;71.29;99370.72;5138092;27;20058;-73
2021/08/30 04:56:52;;;;;;;8.77;6.60;;;;;;;19.96;72.17;99374.22;5135365;27;20037;-74
2021/08/30 04:59:17;;;;;;;11.27;6.60;;;;;;;20.14;71.55;99366.06;5132932;27;20607;-69
2021/08/30 05:01:42;;;;;;;9.93;6.63;;;;;;;20.03;71.44;99367.69;5136304;27;20035;-69
2021/08/30 05:04:08;;;;;;;9.85;6.28;;;;;;;20.07;71.03;99371.53;5135717;27;20053;-69
2021/08/30 05:06:33;;;;;;;8.35;6.30;;;;;;;20.26;70.71;99366.06;5134384;27;20075;-69
2021/08/30 05:08:59;;;;;;;8.95;6.20;;;;;;;20.34;69.37;99379.16;5136224;27;20023;-70
2021/08/30 05:11:24;;;;;;;11.38;6.15;;;;;;;20.45;69.05;99372.16;5131066;27;20333;-74
2021/08/30 05:13:50;;;;;;;6.82;5.88;;;;;;;20.56;67.91;99365.94;5117012;27;20031;-74
2021/08/30 05:16:15;;;;;;;10.10;5.88;;;;;;;20.82;67.40;99372.72;5139006;27;20034;-69
2021/08/30 05:18:41;;;;;;;10.10;6.13;;;;;;;20.95;65.96;99370.56;5131849;27;20015;-74
2021/08/30 05:21:07;;;;;;;7.45;5.68;;;;;;;21.04;65.75;99376.41;5136963;27;20053;-73
2021/08/30 05:23:33;;;;;;;9.75;5.80;;;;;;;21.05;65.96;99380.72;5136452;27;20035;-73
2021/08/30 05:25:59;;;;;;;8.52;5.38;;;;;;;21.16;65.21;99374.47;5134614;27;20051;-74
2021/08/30 05:28:25;;;;;;;7.63;5.97;;;;;;;21.06;64.93;99378.84;5142195;27;20045;-69
2021/08/30 05:30:50;;;;;;;10.25;5.63;;;;;;;21.26;65.44;99374.72;5142686;27;20042;-73
2021/08/30 05:33:15;;;;;;;8.13;6.18;;;;;;;21.40;64.39;99375.22;5143522;27;20201;-69
2021/08/30 05:35:41;;;;;;;8.88;5.50;;;;;;;21.64;62.85;99378.63;5141246;27;20297;-71
2021/08/30 05:38:06;;;;;;;8.15;5.05;;;;;;;21.65;62.51;99378.38;5143500;27;20681;-70
2021/08/30 05:40:32;;;;;;;9.48;5.97;;;;;;;22.05;61.38;99372.09;5143241;27;20267;-69
2021/08/30 05:42:57;;;;;;;6.38;5.03;;;;;;;22.18;59.90;99390.63;5142158;27;20027;-71
2021/08/30 05:45:23;;;;;;;7.97;5.00;;;;;;;22.58;59.08;99387.72;5143448;27;20031;-69
2021/08/30 05:47:48;;;;;;;7.97;5.10;;;;;;;22.85;58.50;99395.13;5143450;27;20090;-69
2021/08/30 05:50:14;;;;;;;9.77;5.78;;;;;;;23.16;57.54;99366.63;5142924;27;20038;-69
2021/08/30 05:52:39;;;;;;;6.65;5.00;;;;;;;23.48;56.79;99389.13;5142871;27;20221;-69
2021/08/30 05:55:05;;;;;;;7.90;4.70;;;;;;;23.34;56.65;99387.06;5142997;27;20031;-71
2021/08/30 05:57:30;;;;;;;7.28;5.40;;;;;;;23.41;56.09;99388.50;5143093;27;20023;-71
2021/08/30 05:59:56;;;;;;;7.93;4.65;;;;;;;23.70;55.14;99397.22;5141699;27;20046;-69
2021/08/30 06:02:21;;;;;;;5.95;4.75;;;;;;;23.70;54.71;99390.97;5143193;27;20031;-69
2021/08/30 06:04:47;;;;;;;6.95;4.57;;;;;;;23.52;55.27;99387.53;5142429;27;20045;-69
2021/08/30 06:07:12;;;;;;;6.63;4.22;;;;;;;23.59;54.99;99395.47;5143376;27;20108;-69
2021/08/30 06:09:38;;;;;;;7.60;4.03;;;;;;;23.62;54.39;99392.25;5143136;27;20054;-71
2021/08/30 06:12:04;;;;;;;6.03;4.50;;;;;;;23.70;54.39;99393.69;5142819;27;20042;-71
2021/08/30 06:14:29;;;;;;;7.85;4.35;;;;;;;23.92;54.46;99396.31;5142721;27;20257;-71
2021/08/30 06:16:55;;;;;;;9.80;4.95;;;;;;;24.09;54.08;99397.03;5141344;27;20232;-69
2021/08/30 06:19:20;;;;;;;9.32;4.32;;;;;;;24.30;53.50;99398.84;5142771;27;20027;-69
2021/08/30 06:21:46;;;;;;;8.45;4.47;;;;;;;24.36;52.81;99397.78;5142540;27;20084;-71
2021/08/30 06:24:11;;;;;;;9.40;4.88;;;;;;;24.11;52.81;99401.09;5142700;27;20224;-71
2021/08/30 06:26:37;;;;;;;8.27;4.70;;;;;;;24.37;52.96;99404.03;5138517;27;20104;-71
2021/08/30 06:29:04;;;;;;;8.30;3.97;;;;;;;24.49;51.95;99399.22;5129124;27;20079;-71
2021/08/30 06:31:30;;;;;;;4.72;4.20;;;;;;;24.58;51.33;99394.97;5133705;27;20035;-69
2021/08/30 06:33:56;;;;;;;7.18;4.43;;;;;;;24.65;51.09;99392.81;5129186;27;20031;-69
2021/08/30 06:36:21;;;;;;;7.43;4.30;;;;;;;24.74;51.27;99379.59;5133544;27;20034;-71
2021/08/30 06:38:47;;;;;;;5.05;4.00;;;;;;;25.14;50.71;99387.97;5129598;27;20031;-71
2021/08/30 06:41:12;;;;;;;5.35;4.20;;;;;;;25.45;49.52;99394.28;5130211;27;20027;-71
2021/08/30 06:43:38;;;;;;;6.95;4.25;;;;;;;26.14;48.63;99397.66;5130963;27;20031;-71
2021/08/30 06:46:03;;;;;;;7.15;4.40;;;;;;;26.12;47.57;99394.41;5127638;27;20347;-69
2021/08/30 06:48:29;;;;;;;6.57;3.88;;;;;;;26.42;47.18;99397.09;5133217;27;20033;-69
2021/08/30 06:50:54;;;;;;;7.03;3.80;;;;;;;26.39;46.38;99403.91;5128058;27;20041;-69
2021/08/30 06:53:20;;;;;;;4.57;3.90;;;;;;;26.48;46.67;99411.47;5129583;27;20046;-71
2021/08/30 06:55:45;;;;;;;5.97;3.83;;;;;;;26.02;47.22;99406.88;5132541;27;20034;-71
2021/08/30 06:58:10;;;;;;;5.15;3.33;;;;;;;26.47;47.27;99416.09;5130129;27;20027;-69
2021/08/30 07:00:36;;;;;;;8.20;4.28;;;;;;;26.93;46.58;99408.63;5129826;27;20084;-71
2021/08/30 07:03:01;;;;;;;4.75;3.83;;;;;;;27.17;45.43;99411.59;5131910;27;20085;-72
2021/08/30 07:05:27;;;;;;;8.00;4.07;;;;;;;27.50;45.07;99412.78;5131056;27;20035;-71
2021/08/30 07:07:52;;;;;;;5.97;3.83;;;;;;;27.40;44.65;99415.56;5131624;27;20107;-69
2021/08/30 07:10:18;;;;;;;5.97;3.90;;;;;;;27.50;44.96;99414.69;5130965;27;20035;-69
2021/08/30 07:12:43;;;;;;;3.90;3.50;;;;;;;27.69;44.26;99418.41;5130355;27;20065;-70
2021/08/30 07:15:09;;;;;;;9.05;4.10;;;;;;;27.55;44.01;99420.09;5129662;27;20031;-71
2021/08/30 07:17:35;;;;;;;7.88;4.00;;;;;;;27.14;45.08;99422.22;5130908;27;20019;-71
2021/08/30 07:20:00;;;;;;;4.20;3.65;;;;;;;27.43;45.12;99419.63;5126863;27;20019;-71
2021/08/30 07:22:26;;;;;;;7.60;4.03;;;;;;;27.45;44.97;99428.31;5131522;27;20031;-71
2021/08/30 07:24:51;;;;;;;5.30;3.70;;;;;;;27.64;43.91;99424.69;5128406;27;20039;-69
2021/08/30 07:27:17;;;;;;;4.38;3.60;;;;;;;27.38;43.88;99434.06;5132455;27;20023;-69
2021/08/30 07:29:42;;;;;;;5.05;3.60;;;;;;;27.50;44.35;99420.13;5133756;27;20031;-71
2021/08/30 07:32:08;;;;;;;8.60;3.85;;;;;;;27.78;44.24;99415.88;5131393;27;20023;-69
2021/08/30 07:34:34;;;;;;;5.43;3.80;;;;;;;27.46;44.30;99427.22;5131672;27;20049;-71
2021/08/30 07:36:59;;;;;;;4.07;3.05;;;;;;;27.81;43.71;99418.84;5133135;27;20039;-69
2021/08/30 07:39:25;;;;;;;4.65;3.47;;;;;;;28.03;42.43;99421.13;5130189;27;20384;-71
2021/08/30 07:41:51;;;;;;;4.32;3.70;;;;;;;27.87;43.16;99422.34;5133934;27;20202;-71
2021/08/30 07:44:16;;;;;;;3.55;3.03;;;;;;;28.16;42.76;99423.25;5132043;27;20039;-71
2021/08/30 07:46:42;;;;;;;11.98;4.00;;;;;;;27.87;43.29;99417.72;5130997;27;20073;-69
2021/08/30 07:49:08;;;;;;;7.28;3.90;;;;;;;28.25;43.58;99413.38;5134391;27;20035;-69
2021/08/30 07:51:36;;;;;;;6.07;3.70;;;;;;;28.50;42.11;99415.06;5129108;27;20027;-69
2021/08/30 07:54:01;;;;;;;6.25;3.22;;;;;;;28.25;43.24;99410.66;5135184;27;20035;-70
2021/08/30 07:56:27;;;;;;;6.10;3.30;;;;;;;28.36;42.18;99419.56;5136728;27;20056;-70
2021/08/30 07:58:52;;;;;;;7.43;3.55;;;;;;;28.29;42.72;99421.78;5134039;27;20441;-72
2021/08/30 08:01:18;;;;;;;4.85;3.30;;;;;;;27.90;42.34;99408.19;5135716;27;20064;-71
2021/08/30 08:03:43;;;;;;;4.80;3.30;;;;;;;28.33;42.65;99411.97;5135353;27;20064;-70
2021/08/30 08:06:09;;;;;;;8.05;3.97;;;;;;;28.43;42.39;99403.69;5134640;27;20039;-69
2021/08/30 08:08:34;;;;;;;5.25;3.70;;;;;;;28.61;42.21;99418.50;5136359;27;20107;-71
2021/08/30 08:11:00;;;;;;;10.13;4.15;;;;;;;28.39;42.88;99416.25;5135182;27;20031;-70
2021/08/30 08:13:26;;;;;;;6.13;3.80;;;;;;;28.71;41.41;99414.84;5133517;27;20027;-69
2021/08/30 08:15:52;;;;;;;5.22;3.25;;;;;;;28.96;41.17;99419.22;5135434;27;20042;-70
2021/08/30 08:18:18;;;;;;;5.03;3.30;;;;;;;29.07;41.13;99410.63;5134716;27;20033;-69
2021/08/30 08:20:48;;;;;;;11.63;3.70;;;;;;;28.72;41.60;99430.09;5132527;27;20031;-71
2021/08/30 08:23:13;;;;;;;7.85;3.50;;;;;;;28.64;41.45;99419.81;5135038;27;20524;-72
2021/08/30 08:25:39;;;;;;;5.30;3.75;;;;;;;28.49;41.61;99418.88;5119561;27;20031;-69
2021/08/30 08:28:06;;;;;;;10.68;4.00;;;;;;;28.85;42.49;99432.16;5133269;27;20027;-71
2021/08/30 08:30:32;;;;;;;8.55;4.35;;;;;;;29.40;42.18;99425.22;5136825;27;20064;-70
2021/08/30 08:32:57;;;;;;;10.20;4.10;;;;;;;29.86;40.84;99413.66;5116593;27;20387;-69
2021/08/30 08:35:23;;;;;;;4.22;3.65;;;;;;;29.55;39.47;99414.13;5132184;27;20027;-71
2021/08/30 08:37:49;;;;;;;5.68;3.67;;;;;;;29.17;40.87;99415.97;5135246;27;20208;-71
2021/08/30 08:40:15;;;;;;;4.68;3.42;;;;;;;29.33;40.63;99419.31;5134260;27;20035;-70
2021/08/30 08:42:42;;;;;;;5.53;3.80;;;;;;;29.34;40.13;99418.22;5133464;27;20266;-69
2021/08/30 08:45:12;;;;;;;5.55;3.33;;;;;;;28.95;40.22;99403.97;5136638;27;20039;-71
2021/08/30 08:47:39;;;;;;;5.10;3.75;;;;;;;28.79;40.75;99409.56;5132061;27;20046;-70
2021/08/30 08:50:10;;;;;;;5.70;3.83;;;;;;;28.95;40.65;99409.41;5140081;27;20122;-71
2021/08/30 08:52:36;;;;;;;12.27;3.60;;;;;;;29.07;41.28;99401.63;5142825;27;20336;-70
2021/08/30 08:55:03;;;;;;;6.03;3.70;;;;;;;29.30;40.97;99400.00;5142369;27;20035;-70
2021/08/30 08:57:29;;;;;;;6.10;3.63;;;;;;;29.35;40.01;99392.56;5143059;27;20068;-69
2021/08/30 09:00:03;;;;;;;4.60;3.78;;;;;;;29.49;40.01;99400.84;5142375;27;20035;-70
2021/08/30 09:02:30;;;;;;;4.50;3.60;;;;;;;29.12;39.60;99407.03;5144229;27;20035;-69
2021/08/30 09:04:57;;;;;;;6.82;3.40;;;;;;;29.37;39.63;99395.81;5141975;27;20157;-71
2021/08/30 09:07:42;;;;;;;6.18;3.70;;;;;;;29.07;40.89;99401.63;5144295;27;20019;-71
2021/08/30 09:10:13;;;;;;;4.57;3.53;;;;;;;29.21;40.80;99400.66;5142847;27;20059;-71
2021/08/30 09:12:41;;;;;;;6.00;3.63;;;;;;;29.33;39.75;99407.59;5144143;27;20076;-71
2021/08/30 09:15:26;;;;;;;6.70;3.85;;;;;;;29.72;39.48;99389.03;5145081;27;20035;-70
2021/08/30 09:17:54;;;;;;;5.18;3.53;;;;;;;29.77;40.18;99399.88;5144017;27;20221;-71
2021/08/30 09:20:22;;;;;;;4.72;3.83;;;;;;;29.95;39.14;99398.22;5143575;27;20202;-70
2021/08/30 09:22:48;;;;;;;5.82;3.50;;;;;;;30.02;38.71;99397.88;5142307;27;20038;-70
2021/08/30 09:25:15;;;;;;;8.88;3.60;;;;;;;29.96;39.54;99385.38;5143633;27;20051;-70
2021/08/30 09:27:44;;;;;;;9.10;3.28;;;;;;;29.80;38.78;99387.56;5125515;27;20316;-71
2021/08/30 09:30:12;;;;;;;5.32;3.72;;;;;;;29.81;38.85;99387.25;5143409;27;20031;-69
2021/08/30 09:32:45;;;;;;;5.20;3.65;;;;;;;29.51;40.51;99387.72;5143703;27;20108;-69
2021/08/30 09:35:11;;;;;;;6.23;3.90;;;;;;;29.52;39.99;99390.16;5143599;27;20308;-69
2021/08/30 09:37:39;;;;;;;5.25;3.83;;;;;;;29.05;40.13;99395.66;5143656;27;20437;-70
2021/08/30 09:40:11;;;;;;;4.80;3.65;;;;;;;28.95;40.86;99393.88;5143114;27;20402;-70
2021/08/30 09:42:40;;;;;;;6.55;3.90;;;;;;;28.88;40.98;99386.06;5143451;27;20077;-71
2021/08/30 09:45:14;;;;;;;6.68;3.70;;;;;;;28.45;42.01;99387.88;5141619;27;20363;-69
2021/08/30 09:48:01;;;;;;;7.45;4.20;;;;;;;28.55;42.00;99387.75;5134131;27;20356;-71
2021/08/30 09:50:31;;;;;;;6.03;4.00;;;;;;;28.85;42.12;99383.91;5133544;27;20027;-71
2021/08/30 09:52:58;;;;;;;5.07;4.22;;;;;;;28.78;42.01;99385.34;5131704;27;20045;-69
2021/08/30 09:55:25;;;;;;;7.72;4.03;;;;;;;28.82;43.19;99383.66;5132480;27;20094;-71
2021/08/30 09:57:51;;;;;;;6.68;4.15;;;;;;;29.04;41.61;99378.50;5132351;27;20038;-71
2021/08/30 10:00:18;;;;;;;6.35;4.32;;;;;;;29.03;42.05;99379.59;5130664;27;20069;-69
2021/08/30 10:02:52;;;;;;;4.93;3.95;;;;;;;28.81;41.84;99374.66;5131717;27;20038;-71
2021/08/30 10:05:19;;;;;;;6.47;4.18;;;;;;;28.50;42.94;99378.84;5130125;27;20039;-69
2021/08/30 10:07:46;;;;;;;9.10;4.25;;;;;;;28.66;42.86;99374.03;5131689;27;20031;-71
2021/08/30 10:10:13;;;;;;;5.43;4.05;;;;;;;28.67;41.20;99375.66;5136574;27;20032;-69
2021/08/30 10:12:40;;;;;;;7.15;4.40;;;;;;;28.98;41.20;99368.75;5131559;27;20047;-69
2021/08/30 10:15:07;;;;;;;4.72;3.65;;;;;;;28.76;41.38;99352.94;5132944;27;20059;-70
2021/08/30 10:17:34;;;;;;;6.93;4.53;;;;;;;28.83;42.79;99379.81;5132403;27;20045;-71
2021/08/30 10:20:02;;;;;;;9.80;6.70;;;;;;;28.91;42.09;99381.94;5131722;27;20192;-72
2021/08/30 10:22:27;;;;;;;14.93;8.27;;;;;;;28.71;42.08;99371.25;5130189;27;20050;-71
2021/08/30 10:24:53;;;;;;;29.65;22.05;;;;;;;28.86;41.40;99374.63;5128045;27;20062;-71
2021/08/30 10:27:34;;;;;;;4.93;3.92;;;;;;;29.26;38.84;99372.50;5135564;27;20098;-70
2021/08/30 10:30:11;;;;;;;13.77;5.43;;;;;;;29.15;40.64;99360.94;5135698;27;20102;-69
2021/08/30 10:32:41;;;;;;;6.68;4.05;;;;;;;28.42;41.10;99369.38;5133069;27;20038;-71
2021/08/30 10:35:17;;;;;;;5.55;3.67;;;;;;;28.51;40.95;99373.09;5133782;27;20039;-71
2021/08/30 10:38:06;;;;;;;8.77;3.85;;;;;;;28.51;40.16;99372.28;5131497;27;20036;-70
2021/08/30 10:40:34;;;;;;;148.25;70.15;;;;;;;28.70;39.56;99359.53;5135575;27;20380;-70
2021/08/30 10:43:06;;;;;;;19.65;10.80;;;;;;;28.85;39.41;99366.75;5135647;27;20368;-70
2021/08/30 10:45:43;;;;;;;6.60;4.85;;;;;;;28.95;39.59;99365.81;5129716;27;20031;-72
2021/08/30 10:48:12;;;;;;;4.85;3.42;;;;;;;28.81;40.71;99362.94;5134632;27;20040;-71
2021/08/30 10:50:44;;;;;;;7.88;4.20;;;;;;;28.71;40.50;99365.81;5131822;27;20031;-71
2021/08/30 10:53:17;;;;;;;5.43;3.45;;;;;;;28.32;40.51;99372.22;5134942;27;20031;-72
2021/08/30 10:55:45;;;;;;;4.63;3.60;;;;;;;28.47;39.66;99366.59;5135210;27;20073;-70
2021/08/30 10:58:14;;;;;;;6.95;3.20;;;;;;;28.73;37.34;99358.97;5132959;27;20038;-71
2021/08/30 11:00:39;;;;;;;8.07;3.10;;;;;;;28.67;38.05;99360.13;5132028;27;20035;-71
2021/08/30 11:03:05;;;;;;;6.28;3.92;;;;;;;28.73;39.01;99355.44;5129840;27;20084;-72
2021/08/30 11:05:31;;;;;;;5.00;3.40;;;;;;;29.10;38.73;99350.06;5134022;27;20035;-69
2021/08/30 11:07:57;;;;;;;4.78;3.22;;;;;;;28.93;38.01;99357.94;5135170;27;20310;-69
2021/08/30 11:10:25;;;;;;;5.18;3.22;;;;;;;28.75;38.75;99355.94;5130192;27;20035;-69
2021/08/30 11:12:52;;;;;;;6.38;3.03;;;;;;;28.58;39.54;99349.06;5134212;27;20035;-69
2021/08/30 11:15:18;;;;;;;7.18;3.97;;;;;;;28.56;39.27;99348.53;5133951;27;20068;-70
2021/08/30 11:17:43;;;;;;;13.32;7.13;;;;;;;28.75;39.90;99351.31;5129509;27;20057;-71
2021/08/30 11:20:09;;;;;;;3.55;3.15;;;;;;;28.63;37.58;99347.38;5132374;27;20315;-70
2021/08/30 11:22:35;;;;;;;4.40;3.28;;;;;;;28.86;38.99;99349.28;5134311;27;20034;-72
2021/08/30 11:25:03;;;;;;;6.00;3.60;;;;;;;28.78;38.80;99349.91;5129990;27;20071;-70
2021/08/30 11:27:32;;;;;;;3.83;3.10;;;;;;;28.43;39.67;99353.84;5135734;27;20039;-69
2021/08/30 11:30:04;;;;;;;3.97;3.28;;;;;;;28.07;39.12;99346.00;5138311;27;20039;-69
2021/08/30 11:32:31;;;;;;;4.32;3.20;;;;;;;28.16;38.28;99344.28;5136233;27;20039;-71